createdAt,value
2022-12-29T00:02:02.697Z,67.56
2022-12-29T00:04:57.711Z,52.33
2022-12-29T00:07:52.708Z,48.26
2022-12-29T00:10:47.743Z,50.06
2022-12-29T00:13:55.689Z,51.39
2022-12-29T00:16:30.964Z,53.18
2022-12-29T00:19:39.689Z,54.84
2022-12-29T00:22:35.379Z,55.88
2022-12-29T00:25:42.703Z,57.21
2022-12-29T00:28:37.098Z,57.86
2022-12-29T00:31:44.755Z,59.02
2022-12-29T00:34:44.674Z,60.07
2022-12-29T00:37:59.155Z,61.10
2022-12-29T00:41:13.689Z,74.16
2022-12-29T00:44:14.695Z,68.04
2022-12-29T00:46:56.179Z,52.10
2022-12-29T00:49:43.698Z,49.88
2022-12-29T00:52:24.824Z,52.21
2022-12-29T00:55:12.702Z,53.78
2022-12-29T00:57:54.890Z,55.13
2022-12-29T01:00:50.985Z,56.43
2022-12-29T01:03:45.905Z,57.96
2022-12-29T01:06:42.723Z,58.88
2022-12-29T01:09:55.774Z,60.01
2022-12-29T01:12:52.678Z,59.89
2022-12-29T01:15:47.715Z,61.11
2022-12-29T01:18:35.669Z,73.81
2022-12-29T01:21:14.235Z,70.23
2022-12-29T01:24:09.748Z,55.75
2022-12-29T01:27:04.673Z,49.05
2022-12-29T01:29:59.694Z,50.70
2022-12-29T01:32:54.875Z,52.75
2022-12-29T01:35:43.791Z,53.85
2022-12-29T01:38:18.865Z,54.94
2022-12-29T01:41:13.693Z,55.55
2022-12-29T01:44:11.692Z,56.40
2022-12-29T01:46:59.663Z,57.06
2022-12-29T01:49:54.679Z,58.16
2022-12-29T01:52:51.658Z,59.41
2022-12-29T01:55:50.689Z,59.94
2022-12-29T01:58:49.699Z,61.12
2022-12-29T02:01:37.826Z,71.23
2022-12-29T02:04:12.848Z,71.03
2022-12-29T02:07:03.697Z,58.40
2022-12-29T02:09:38.824Z,48.89
2022-12-29T02:12:28.662Z,49.33
2022-12-29T02:15:13.674Z,51.66
2022-12-29T02:18:18.653Z,53.54
2022-12-29T02:21:40.675Z,55.21
2022-12-29T02:24:41.863Z,56.65
2022-12-29T02:27:55.687Z,57.33
2022-12-29T02:30:50.695Z,59.04
2022-12-29T02:34:27.668Z,59.80
2022-12-29T02:37:36.674Z,59.37
2022-12-29T02:40:56.674Z,60.41
2022-12-29T02:44:20.654Z,74.22
2022-12-29T02:47:23.672Z,65.51
2022-12-29T02:50:23.649Z,50.72
2022-12-29T02:53:47.681Z,48.61
2022-12-29T02:56:42.851Z,50.44
2022-12-29T02:59:38.876Z,52.36
2022-12-29T03:02:40.045Z,53.38
2022-12-29T03:05:48.671Z,53.96
2022-12-29T03:08:51.650Z,54.33
2022-12-29T03:12:11.690Z,55.13
2022-12-29T03:15:30.664Z,56.01
2022-12-29T03:18:30.678Z,56.73
2022-12-29T03:21:57.879Z,58.21
2022-12-29T03:24:56.673Z,58.91
2022-12-29T03:27:55.851Z,60.09
2022-12-29T03:30:51.704Z,61.51
2022-12-29T03:33:46.655Z,72.39
2022-12-29T03:36:45.640Z,69.24
2022-12-29T03:39:41.659Z,53.26
2022-12-29T03:42:31.652Z,49.22
2022-12-29T03:48:22.639Z,51.65
2022-12-29T03:51:04.872Z,53.05
2022-12-29T03:54:21.319Z,53.77
2022-12-29T03:57:16.643Z,54.11
2022-12-29T03:59:51.776Z,55.60
2022-12-29T04:02:39.938Z,56.45
2022-12-29T04:05:22.656Z,57.77
2022-12-29T04:08:10.671Z,57.85
2022-12-29T04:10:51.663Z,59.04
2022-12-29T04:13:48.658Z,59.56
2022-12-29T04:16:36.843Z,59.73
2022-12-29T04:19:18.640Z,60.74
2022-12-29T04:22:06.862Z,61.44
2022-12-29T04:24:50.660Z,70.24
2022-12-29T04:27:38.874Z,71.09
2022-12-29T04:30:21.662Z,57.89
2022-12-29T04:33:16.639Z,47.62
2022-12-29T04:36:07.669Z,48.19
2022-12-29T04:38:49.646Z,50.02
2022-12-29T04:41:44.648Z,51.39
2022-12-29T04:44:44.904Z,52.42
2022-12-29T04:47:40.634Z,53.42
2022-12-29T04:50:28.785Z,54.78
2022-12-29T04:53:03.818Z,56.02
2022-12-29T04:55:58.630Z,57.15
2022-12-29T04:58:53.643Z,58.06
2022-12-29T05:01:48.726Z,59.06
2022-12-29T05:04:43.644Z,60.52
2022-12-29T05:07:32.640Z,61.22
2022-12-29T05:10:07.799Z,61.50
2022-12-29T05:12:55.645Z,71.18
2022-12-29T05:15:30.746Z,70.90
2022-12-29T05:18:18.700Z,57.81
2022-12-29T05:20:54.771Z,48.80
2022-12-29T05:23:42.639Z,48.98
2022-12-29T05:26:24.648Z,50.59
2022-12-29T05:29:19.654Z,52.27
2022-12-29T05:32:14.727Z,53.65
2022-12-29T05:35:09.737Z,54.74
2022-12-29T05:38:04.737Z,55.62
2022-12-29T05:40:52.632Z,56.26
2022-12-29T05:43:27.802Z,57.52
2022-12-29T05:46:15.697Z,58.34
2022-12-29T05:48:57.738Z,59.00
2022-12-29T05:51:52.636Z,59.69
2022-12-29T05:54:47.657Z,60.65
2022-12-29T05:57:42.638Z,69.44
2022-12-29T06:00:30.609Z,71.06
2022-12-29T06:03:25.837Z,56.99
2022-12-29T06:06:20.632Z,49.13
2022-12-29T06:09:08.824Z,50.27
2022-12-29T06:12:03.723Z,51.76
2022-12-29T06:14:51.679Z,52.96
2022-12-29T06:17:26.797Z,54.12
2022-12-29T06:20:15.616Z,55.29
2022-12-29T06:22:56.734Z,56.42
2022-12-29T06:25:51.667Z,57.65
2022-12-29T06:28:46.633Z,58.78
2022-12-29T06:31:41.683Z,60.27
2022-12-29T06:34:29.623Z,71.24
2022-12-29T06:37:04.801Z,67.56
2022-12-29T06:39:52.603Z,53.87
2022-12-29T06:42:27.778Z,49.67
2022-12-29T06:45:16.643Z,51.25
2022-12-29T06:47:51.793Z,52.73
2022-12-29T06:50:39.628Z,54.19
2022-12-29T06:53:21.640Z,55.55
2022-12-29T06:56:16.623Z,56.32
2022-12-29T06:59:11.623Z,57.04
2022-12-29T07:01:59.760Z,58.34
2022-12-29T07:04:54.602Z,60.15
2022-12-29T07:07:42.639Z,60.62
2022-12-29T07:10:24.632Z,67.24
2022-12-29T07:13:19.624Z,71.33
2022-12-29T07:16:14.732Z,60.83
2022-12-29T07:19:10.600Z,51.50
2022-12-29T07:22:05.603Z,49.75
2022-12-29T07:25:00.615Z,50.45
2022-12-29T07:27:56.612Z,51.88
2022-12-29T07:30:51.612Z,52.70
2022-12-29T07:33:47.659Z,54.09
2022-12-29T07:36:42.635Z,54.69
2022-12-29T07:39:37.635Z,55.60
2022-12-29T07:42:25.605Z,56.74
2022-12-29T07:45:00.784Z,57.84
2022-12-29T07:47:48.611Z,58.66
2022-12-29T07:50:23.751Z,59.39
2022-12-29T07:53:11.658Z,60.15
2022-12-29T07:55:53.754Z,60.73
2022-12-29T07:58:41.616Z,61.69
2022-12-29T08:01:24.021Z,70.06
2022-12-29T08:04:18.667Z,69.99
2022-12-29T08:07:14.808Z,53.55
2022-12-29T08:10:09.727Z,49.87
2022-12-29T08:13:04.719Z,51.73
2022-12-29T08:15:59.634Z,53.31
2022-12-29T08:18:54.604Z,54.86
2022-12-29T08:21:49.563Z,55.64
2022-12-29T08:24:37.768Z,56.41
2022-12-29T08:27:21.071Z,57.24
2022-12-29T08:30:16.583Z,57.78
2022-12-29T08:33:04.622Z,58.39
2022-12-29T08:35:59.749Z,59.21
2022-12-29T08:38:54.761Z,59.97
2022-12-29T08:41:50.603Z,60.23
2022-12-29T08:44:45.606Z,69.57
2022-12-29T08:47:40.608Z,69.78
2022-12-29T08:50:35.642Z,53.06
2022-12-29T08:53:30.594Z,49.54
2022-12-29T08:56:25.813Z,50.78
2022-12-29T08:59:21.795Z,51.92
2022-12-29T09:02:23.676Z,52.94
2022-12-29T09:05:13.604Z,53.13
2022-12-29T09:07:48.899Z,54.42
2022-12-29T09:10:36.605Z,54.66
2022-12-29T09:13:18.741Z,54.98
2022-12-29T09:16:13.793Z,55.48
2022-12-29T09:19:08.602Z,55.79
2022-12-29T09:22:03.742Z,56.12
2022-12-29T09:24:58.748Z,56.35
2022-12-29T09:27:53.592Z,56.42
2022-12-29T09:30:48.612Z,56.75
2022-12-29T09:33:43.748Z,56.94
2022-12-29T09:36:38.851Z,57.78
2022-12-29T09:39:33.748Z,58.16
2022-12-29T09:42:36.819Z,58.46
2022-12-29T09:45:17.735Z,59.67
2022-12-29T09:48:24.535Z,60.10
2022-12-29T09:51:03.927Z,64.05
2022-12-29T09:54:05.587Z,72.21
2022-12-29T09:57:00.793Z,59.69
2022-12-29T09:59:50.589Z,48.71
2022-12-29T10:02:31.361Z,46.91
2022-12-29T10:05:31.620Z,48.62
2022-12-29T10:08:24.829Z,50.43
2022-12-29T10:11:28.605Z,50.91
2022-12-29T10:14:54.766Z,50.82
2022-12-29T10:18:08.570Z,51.51
2022-12-29T10:21:11.641Z,51.73
2022-12-29T10:24:07.729Z,52.23
2022-12-29T10:27:03.562Z,53.83
2022-12-29T10:30:09.719Z,53.98
2022-12-29T10:33:09.733Z,54.73
2022-12-29T10:35:58.587Z,54.71
2022-12-29T10:39:10.585Z,54.91
2022-12-29T10:42:09.589Z,55.17
2022-12-29T10:45:04.898Z,55.32
2022-12-29T10:47:54.368Z,55.57
2022-12-29T10:50:43.767Z,56.90
2022-12-29T10:53:38.563Z,55.68
2022-12-29T10:56:37.592Z,56.39
2022-12-29T10:59:28.565Z,56.47
2022-12-29T11:02:26.723Z,56.14
2022-12-29T11:05:51.574Z,55.91
2022-12-29T11:08:36.605Z,55.97
2022-12-29T11:11:38.573Z,56.97
2022-12-29T11:14:37.597Z,56.24
2022-12-29T11:17:25.565Z,56.43
2022-12-29T11:19:59.729Z,56.00
2022-12-29T11:22:51.581Z,55.78
2022-12-29T11:25:26.727Z,55.79
2022-12-29T11:28:23.572Z,55.98
2022-12-29T11:31:07.695Z,56.10
2022-12-29T11:33:55.540Z,55.97
2022-12-29T11:36:31.861Z,56.08
2022-12-29T11:39:38.762Z,55.77
2022-12-29T11:42:21.706Z,55.31
2022-12-29T11:45:28.741Z,54.81
2022-12-29T11:48:24.763Z,54.87
2022-12-29T11:51:13.571Z,55.15
2022-12-29T11:53:58.901Z,55.40
2022-12-29T11:56:49.571Z,55.03
2022-12-29T11:59:45.730Z,55.25
2022-12-29T12:02:56.785Z,54.02
2022-12-29T12:06:04.596Z,53.88
2022-12-29T12:09:17.736Z,53.48
2022-12-29T12:12:14.580Z,53.76
2022-12-29T12:15:11.591Z,53.86
2022-12-29T12:18:29.549Z,52.86
2022-12-29T12:21:53.759Z,51.94
2022-12-29T12:24:54.569Z,52.07
2022-12-29T12:27:56.767Z,51.88
2022-12-29T12:30:55.614Z,51.67
2022-12-29T12:33:47.693Z,51.39
2022-12-29T12:36:51.748Z,51.16
2022-12-29T12:40:18.580Z,50.77
2022-12-29T12:43:03.623Z,50.69
2022-12-29T12:46:28.681Z,50.69
2022-12-29T12:50:17.576Z,51.20
2022-12-29T12:53:37.558Z,50.89
2022-12-29T12:56:43.554Z,51.30
2022-12-29T12:59:44.581Z,51.76
2022-12-29T13:02:48.706Z,52.95
2022-12-29T13:05:53.563Z,52.43
2022-12-29T13:08:54.563Z,53.13
2022-12-29T13:12:15.568Z,53.96
2022-12-29T13:15:39.615Z,53.21
2022-12-29T13:18:39.576Z,53.58
2022-12-29T13:21:26.729Z,53.70
2022-12-29T13:24:31.594Z,54.32
2022-12-29T13:27:37.081Z,55.35
2022-12-29T13:30:30.711Z,55.83
2022-12-29T13:33:22.030Z,55.87
2022-12-29T13:36:05.818Z,56.14
2022-12-29T13:38:57.568Z,56.35
2022-12-29T13:41:37.692Z,56.46
2022-12-29T13:44:47.572Z,56.33
2022-12-29T13:47:44.556Z,56.25
2022-12-29T13:50:41.605Z,57.14
2022-12-29T13:53:50.544Z,57.09
2022-12-29T13:56:49.597Z,57.37
2022-12-29T13:59:23.733Z,57.91
2022-12-29T14:02:23.672Z,58.07
2022-12-29T14:05:14.567Z,57.91
2022-12-29T14:08:14.548Z,58.15
2022-12-29T14:11:02.776Z,57.64
2022-12-29T14:13:37.809Z,58.05
2022-12-29T14:16:50.727Z,58.22
2022-12-29T14:19:53.555Z,58.38
2022-12-29T14:22:41.568Z,58.85
2022-12-29T14:26:01.741Z,58.96
2022-12-29T14:28:58.604Z,59.40
2022-12-29T14:31:48.579Z,59.57
2022-12-29T14:34:53.637Z,60.05
2022-12-29T14:37:49.575Z,60.53
2022-12-29T14:40:44.552Z,61.11
2022-12-29T14:43:40.546Z,61.24
2022-12-29T14:46:38.566Z,61.94
2022-12-29T14:49:43.567Z,66.37
2022-12-29T14:52:33.558Z,68.58
2022-12-29T14:55:32.756Z,56.42
2022-12-29T14:58:33.544Z,51.50
2022-12-29T15:01:33.700Z,52.92
2022-12-29T15:04:41.739Z,55.08
2022-12-29T15:07:36.563Z,57.24
2022-12-29T15:10:33.765Z,58.54
2022-12-29T15:13:47.722Z,59.55
2022-12-29T15:16:49.621Z,60.31
2022-12-29T15:19:37.553Z,61.14
2022-12-29T15:22:12.863Z,61.91
2022-12-29T15:25:02.644Z,62.41
2022-12-29T15:27:37.686Z,62.46
2022-12-29T15:30:25.550Z,57.11
2022-12-29T15:33:07.531Z,53.77
2022-12-29T15:36:06.551Z,55.58
2022-12-29T15:38:55.670Z,57.65
2022-12-29T15:42:41.756Z,58.76
2022-12-29T15:45:41.658Z,60.08
2022-12-29T15:48:31.537Z,60.87
2022-12-29T15:51:13.539Z,62.03
2022-12-29T15:54:09.556Z,62.85
2022-12-29T15:56:58.560Z,59.46
2022-12-29T15:59:41.821Z,53.38
2022-12-29T16:02:38.746Z,54.14
2022-12-29T16:05:39.933Z,56.03
2022-12-29T16:08:47.816Z,57.37
2022-12-29T16:11:49.541Z,58.69
2022-12-29T16:14:52.542Z,60.28
2022-12-29T16:17:54.620Z,59.94
2022-12-29T16:20:54.560Z,59.93
2022-12-29T16:23:51.677Z,60.50
2022-12-29T16:26:39.564Z,61.88
2022-12-29T16:29:14.672Z,68.15
2022-12-29T16:32:11.449Z,68.82
2022-12-29T16:35:25.554Z,58.37
2022-12-29T16:38:36.532Z,49.15
2022-12-29T16:41:39.552Z,49.79
2022-12-29T16:44:24.791Z,51.49
2022-12-29T16:47:27.548Z,53.39
2022-12-29T16:50:28.067Z,55.28
2022-12-29T16:53:41.561Z,56.55
2022-12-29T16:56:38.535Z,59.13
2022-12-29T16:59:52.667Z,60.21
2022-12-29T17:02:52.641Z,61.28
2022-12-29T17:05:57.755Z,63.91
2022-12-29T17:08:56.523Z,69.19
2022-12-29T17:12:10.742Z,60.44
2022-12-29T17:15:10.738Z,49.41
2022-12-29T17:18:11.806Z,49.79
2022-12-29T17:21:08.534Z,51.49
2022-12-29T17:23:56.730Z,53.15
2022-12-29T17:26:31.703Z,54.29
2022-12-29T17:29:43.812Z,55.52
2022-12-29T17:32:39.540Z,57.54
2022-12-29T17:35:29.728Z,59.14
2022-12-29T17:38:04.815Z,59.87
2022-12-29T17:40:52.559Z,62.64
2022-12-29T17:43:37.103Z,69.64
2022-12-29T17:46:32.578Z,63.76
2022-12-29T17:49:30.876Z,51.50
2022-12-29T17:52:27.543Z,49.70
2022-12-29T17:55:37.220Z,51.47
2022-12-29T17:58:36.972Z,53.01
2022-12-29T18:01:37.289Z,54.24
2022-12-29T18:04:27.545Z,55.60
2022-12-29T18:07:02.720Z,56.85
2022-12-29T18:09:50.505Z,57.41
2022-12-29T18:12:46.548Z,58.17
2022-12-29T18:15:43.557Z,59.07
2022-12-29T18:18:42.771Z,64.23
2022-12-29T18:21:24.809Z,70.72
2022-12-29T18:24:12.551Z,58.11
2022-12-29T18:26:46.930Z,49.41
2022-12-29T18:29:35.540Z,49.32
2022-12-29T18:32:31.521Z,52.78
2022-12-29T18:35:34.918Z,55.70
2022-12-29T18:38:23.526Z,58.17
2022-12-29T18:40:58.693Z,60.02
2022-12-29T18:43:46.528Z,59.75
2022-12-29T18:46:23.540Z,60.64
2022-12-29T18:49:11.506Z,60.52
2022-12-29T18:51:47.222Z,62.69
2022-12-29T18:54:38.515Z,73.94
2022-12-29T18:57:13.658Z,64.94
2022-12-29T19:00:01.512Z,58.30
2022-12-29T19:02:36.644Z,49.29
2022-12-29T19:05:33.734Z,48.97
2022-12-29T19:08:15.512Z,49.86
2022-12-29T19:11:10.805Z,51.81
2022-12-29T19:14:06.808Z,52.93
2022-12-29T19:17:01.536Z,54.69
2022-12-29T19:19:57.523Z,55.79
2022-12-29T19:22:45.640Z,56.27
2022-12-29T19:25:25.853Z,57.26
2022-12-29T19:28:14.513Z,62.00
2022-12-29T19:31:14.739Z,71.04
2022-12-29T19:34:02.713Z,62.28
2022-12-29T19:36:39.697Z,50.28
2022-12-29T19:39:28.623Z,49.73
2022-12-29T19:42:06.084Z,50.43
2022-12-29T19:45:00.726Z,52.94
2022-12-29T19:47:57.597Z,55.41
2022-12-29T19:50:52.677Z,54.86
2022-12-29T19:53:47.520Z,56.99
2022-12-29T19:56:39.529Z,57.93
2022-12-29T19:59:21.527Z,58.49
2022-12-29T20:02:17.733Z,59.59
2022-12-29T20:05:15.939Z,69.12
2022-12-29T20:08:12.902Z,66.04
2022-12-29T20:11:22.710Z,52.58
2022-12-29T20:14:28.873Z,50.75
2022-12-29T20:17:32.653Z,52.38
2022-12-29T20:20:14.640Z,54.34
2022-12-29T20:23:10.874Z,57.52
2022-12-29T20:26:03.612Z,58.28
2022-12-29T20:28:38.717Z,58.03
2022-12-29T20:31:39.683Z,57.61
2022-12-29T20:34:34.964Z,58.61
2022-12-29T20:37:22.492Z,59.84
2022-12-29T20:39:58.700Z,60.46
2022-12-29T20:42:46.497Z,60.94
2022-12-29T20:45:26.956Z,68.82
2022-12-29T20:48:15.499Z,72.00
2022-12-29T20:51:11.510Z,60.28
2022-12-29T20:54:08.538Z,50.90
2022-12-29T20:57:03.509Z,49.94
2022-12-29T20:59:58.530Z,52.11
2022-12-29T21:02:48.755Z,53.86
2022-12-29T21:05:24.815Z,54.96
2022-12-29T21:08:13.502Z,56.09
2022-12-29T21:10:55.513Z,56.95
2022-12-29T21:13:51.509Z,57.92
2022-12-29T21:16:46.533Z,58.56
2022-12-29T21:19:41.531Z,60.40
2022-12-29T21:22:36.699Z,61.58
2022-12-29T21:25:24.692Z,73.39
2022-12-29T21:27:59.820Z,70.47
2022-12-29T21:30:58.523Z,61.43
2022-12-29T21:33:53.533Z,53.30
2022-12-29T21:36:48.490Z,50.87
2022-12-29T21:39:43.523Z,52.05
2022-12-29T21:42:38.488Z,53.07
2022-12-29T21:45:33.500Z,54.27
2022-12-29T21:48:35.485Z,55.34
2022-12-29T21:51:37.084Z,56.64
2022-12-29T21:54:44.502Z,57.93
2022-12-29T21:57:46.489Z,60.64
2022-12-29T22:00:59.719Z,70.52
2022-12-29T22:04:13.678Z,69.84
2022-12-29T22:07:27.529Z,54.05
2022-12-29T22:10:34.476Z,49.79
2022-12-29T22:13:09.607Z,51.39
2022-12-29T22:15:57.756Z,53.77
2022-12-29T22:18:32.854Z,57.74
2022-12-29T22:21:21.247Z,60.37
2022-12-29T22:24:16.685Z,63.66
2022-12-29T22:27:11.677Z,70.31
2022-12-29T22:30:06.565Z,63.48
2022-12-29T22:33:01.476Z,54.10
2022-12-29T22:35:57.895Z,50.07
2022-12-29T22:38:52.516Z,51.48
2022-12-29T22:41:40.475Z,52.15
2022-12-29T22:44:28.683Z,55.84
2022-12-29T22:47:03.838Z,56.17
2022-12-29T22:49:53.088Z,57.41
2022-12-29T22:53:00.503Z,57.65
2022-12-29T22:55:55.467Z,58.13
2022-12-29T22:58:59.781Z,58.78
2022-12-29T23:01:57.574Z,60.48
2022-12-29T23:05:02.838Z,60.44
2022-12-29T23:07:41.304Z,72.19
2022-12-29T23:10:31.826Z,69.45
2022-12-29T23:13:13.764Z,57.57
2022-12-29T23:16:08.723Z,50.24
2022-12-29T23:19:06.694Z,50.89
2022-12-29T23:22:04.720Z,57.03
2022-12-29T23:25:00.470Z,59.87
2022-12-29T23:27:55.459Z,57.74
2022-12-29T23:30:50.500Z,58.07
2022-12-29T23:33:45.459Z,58.57
2022-12-29T23:36:33.474Z,59.26
2022-12-29T23:39:33.471Z,61.34
2022-12-29T23:42:28.691Z,73.90
2022-12-29T23:45:25.470Z,71.64
2022-12-29T23:48:20.519Z,64.66
2022-12-29T23:51:15.470Z,53.47
2022-12-29T23:54:03.466Z,50.26
2022-12-29T23:56:40.618Z,51.74
2022-12-29T23:59:28.671Z,53.27
